Terminal Aerodrome Forecast
Issued by NWS Binghamton, NY

Home | Current Version | Previous Version | Text Only | Print | Product List | Glossary On
Versions: 1 2 3 4 5 6 7 8 9 10 11 12 13 14 15 16 17 18 19 20 21
840
FTUS41 KBGM 180904 AAA
TAFAVP
TAF AMD
KAVP 180904Z 1809/1906 VRB03KT P6SM OVC040
      TEMPO 1810/1814 5SM BR OVC025
     FM181800 23005KT P6SM OVC035
     FM190000 22004KT P6SM OVC025=

USA.gov is the U.S. government's official web portal to all federal, state and local government web resources and services.